Time;durP1;ratioP1;P1;durP2;ratioP2;P2;SDS_P1;SDS_P2;PMS_P1;PMS_P2;Temp;Humidity;BMP_temperature;BMP_pressure;BME280_temperature;BME280_humidity;BME280_pressure;Samples;Min_cycle;Max_cycle;Signal;HPM_P1;HPM_P2
2023/09/21 00:00:10;;;;;;;8.13;4.38;;;;;;;15.29;75.33;96641.41;5153975;27;20086;-66
2023/09/21 00:02:38;;;;;;;5.38;4.88;;;;;;;15.24;75.19;96646.94;5154261;27;20497;-67
2023/09/21 00:05:09;;;;;;;9.55;5.22;;;;;;;15.24;75.48;96646.94;5154207;27;20042;-68
2023/09/21 00:07:36;;;;;;;6.75;4.88;;;;;;;15.25;76.39;96648.63;5154854;27;20058;-68
2023/09/21 00:10:05;;;;;;;6.35;5.25;;;;;;;15.21;75.98;96652.38;5157865;27;20047;-66
2023/09/21 00:12:34;;;;;;;7.95;5.53;;;;;;;15.13;75.68;96644.91;5158005;27;20046;-63
2023/09/21 00:15:04;;;;;;;8.50;5.03;;;;;;;15.09;76.14;96650.41;5157917;27;20038;-65
2023/09/21 00:17:33;;;;;;;9.50;5.78;;;;;;;15.06;75.77;96654.06;5157927;27;20043;-65
2023/09/21 00:20:10;;;;;;;5.57;5.07;;;;;;;15.05;76.00;96654.97;5157672;27;20058;-64
2023/09/21 00:22:37;;;;;;;7.05;4.75;;;;;;;15.07;75.54;96647.88;5157703;27;20051;-65
2023/09/21 00:25:09;;;;;;;11.43;5.18;;;;;;;15.03;75.88;96651.59;5157736;27;20050;-68
2023/09/21 00:27:36;;;;;;;6.43;4.80;;;;;;;15.02;76.03;96648.09;5157609;27;20043;-69
2023/09/21 00:30:05;;;;;;;6.05;4.78;;;;;;;15.02;76.19;96650.75;5157636;27;20042;-65
2023/09/21 00:32:34;;;;;;;6.65;4.85;;;;;;;15.03;76.22;96648.97;5157568;27;20095;-68
2023/09/21 00:35:09;;;;;;;11.13;4.80;;;;;;;15.03;75.88;96647.16;5157489;27;20051;-67
2023/09/21 00:37:37;;;;;;;5.40;4.88;;;;;;;15.05;75.36;96648.88;5157480;27;20508;-66
2023/09/21 00:40:17;;;;;;;8.02;5.13;;;;;;;15.02;75.47;96648.09;5157236;27;20050;-65
2023/09/21 00:42:45;;;;;;;5.63;5.13;;;;;;;14.97;75.22;96642.25;5157484;27;20046;-66
2023/09/21 00:45:14;;;;;;;4.80;4.35;;;;;;;14.96;75.11;96645.81;5157362;27;20058;-67
2023/09/21 00:47:43;;;;;;;6.25;5.30;;;;;;;14.94;75.24;96645.06;5157281;27;20050;-65
2023/09/21 00:50:13;;;;;;;5.53;4.68;;;;;;;14.94;75.54;96638.94;5157107;27;20492;-68
2023/09/21 00:52:42;;;;;;;;;;;;;;;14.94;76.12;96642.41;5157605;27;20053;-66
2023/09/21 00:55:12;;;;;;;6.50;4.93;;;;;;;14.86;75.75;96644.59;5157224;27;19926;-63
2023/09/21 00:57:40;;;;;;;12.00;5.40;;;;;;;14.82;75.72;96637.81;5157104;27;20053;-62
2023/09/21 01:00:13;;;;;;;7.57;5.43;;;;;;;14.79;76.20;96644.09;5156763;27;20381;-68
2023/09/21 01:02:42;;;;;;;5.53;5.03;;;;;;;14.75;76.16;96640.72;5156910;27;20088;-67
2023/09/21 01:05:16;;;;;;;7.68;5.55;;;;;;;14.69;76.45;96633.16;5156921;27;20051;-64
2023/09/21 01:07:44;;;;;;;9.73;5.80;;;;;;;14.67;77.09;96637.66;5156874;27;20054;-64
2023/09/21 01:10:13;;;;;;;5.65;5.13;;;;;;;14.64;77.42;96633.44;5156855;27;20038;-68
2023/09/21 01:12:44;;;;;;;6.57;5.47;;;;;;;14.66;77.31;96633.34;5156775;27;20046;-65
2023/09/21 01:15:13;;;;;;;6.85;4.85;;;;;;;14.56;76.84;96637.38;5156811;27;20054;-68
2023/09/21 01:17:42;;;;;;;7.53;4.95;;;;;;;14.55;76.88;96635.66;5156718;27;20075;-65
2023/09/21 01:20:22;;;;;;;7.35;5.10;;;;;;;14.57;77.25;96637.28;5155919;27;20051;-68
2023/09/21 01:23:08;;;;;;;11.10;5.40;;;;;;;14.60;77.11;96629.22;5156762;27;20043;-66
2023/09/21 01:25:39;;;;;;;6.95;5.20;;;;;;;14.56;77.53;96632.97;5156606;27;20046;-63
2023/09/21 01:28:06;;;;;;;6.25;4.63;;;;;;;14.54;77.88;96632.19;5156398;27;20495;-64
2023/09/21 01:30:34;;;;;;;5.25;4.75;;;;;;;14.49;77.48;96640.34;5156368;27;20046;-65
2023/09/21 01:33:04;;;;;;;6.10;5.07;;;;;;;14.49;77.05;96632.44;5156417;27;20043;-63
2023/09/21 01:35:34;;;;;;;7.80;5.38;;;;;;;14.47;77.13;96631.66;5156387;27;20070;-68
2023/09/21 01:38:01;;;;;;;5.40;4.90;;;;;;;14.46;77.09;96627.34;5156264;27;20549;-67
2023/09/21 01:40:28;;;;;;;6.07;4.63;;;;;;;14.46;76.89;96629.13;5156127;27;20051;-66
2023/09/21 01:42:58;;;;;;;8.23;5.90;;;;;;;14.45;77.39;96630.06;5156201;27;20099;-67
2023/09/21 01:45:26;;;;;;;5.53;5.03;;;;;;;14.44;77.52;96625.69;5156222;27;20045;-63
2023/09/21 01:47:53;;;;;;;5.15;4.65;;;;;;;14.38;76.90;96627.72;5156128;27;20046;-68
2023/09/21 01:50:21;;;;;;;8.07;4.88;;;;;;;14.37;76.81;96619.91;5155959;27;20051;-70
2023/09/21 01:52:50;;;;;;;5.53;5.00;;;;;;;14.39;77.40;96620.69;5155950;27;20047;-68
2023/09/21 01:55:17;;;;;;;5.70;5.05;;;;;;;14.41;77.61;96621.44;5156059;27;20046;-68
2023/09/21 01:57:45;;;;;;;5.38;4.88;;;;;;;14.37;77.69;96617.28;5155816;27;20115;-67
2023/09/21 02:00:22;;;;;;;6.10;5.00;;;;;;;14.40;77.56;96623.25;5155522;27;20057;-64
2023/09/21 02:02:49;;;;;;;5.95;4.80;;;;;;;14.36;76.73;96621.69;5155684;27;20047;-64
2023/09/21 02:05:16;;;;;;;6.20;5.70;;;;;;;14.26;77.23;96618.69;5155811;27;20486;-67
2023/09/21 02:07:43;;;;;;;7.38;5.47;;;;;;;14.20;77.90;96624.28;5155687;27;20125;-66
2023/09/21 02:10:11;;;;;;;5.80;5.30;;;;;;;14.20;78.49;96612.88;5155714;27;20050;-69
2023/09/21 02:12:39;;;;;;;6.40;5.30;;;;;;;14.21;78.97;96612.81;5155541;27;20061;-66
2023/09/21 02:15:09;;;;;;;5.80;5.20;;;;;;;14.09;79.96;96611.66;5155599;27;20047;-65
2023/09/21 02:17:39;;;;;;;7.05;6.20;;;;;;;14.08;80.31;96609.09;5155495;27;20480;-70
2023/09/21 02:20:13;;;;;;;7.80;6.07;;;;;;;14.05;80.48;96606.66;5155353;27;20058;-69
2023/09/21 02:22:41;;;;;;;7.60;5.60;;;;;;;14.07;79.87;96608.28;5155379;27;20053;-64
2023/09/21 02:25:11;;;;;;;6.80;5.25;;;;;;;14.06;79.19;96606.56;5155373;27;20137;-63
2023/09/21 02:27:38;;;;;;;7.57;5.33;;;;;;;14.07;79.24;96603.03;5155391;27;20047;-67
2023/09/21 02:30:06;;;;;;;11.55;5.65;;;;;;;14.06;78.34;96598.66;5155352;27;20479;-69
2023/09/21 02:32:34;;;;;;;6.03;5.43;;;;;;;14.01;78.74;96603.31;5154264;27;20043;-66
2023/09/21 02:35:07;;;;;;;9.23;5.35;;;;;;;13.97;78.82;96610.50;5155208;27;20039;-63
2023/09/21 02:37:34;;;;;;;6.40;5.65;;;;;;;14.00;79.12;96601.63;5155114;27;20050;-67
2023/09/21 02:40:02;;;;;;;6.72;4.82;;;;;;;13.98;79.09;96599.06;5155087;27;20556;-69
2023/09/21 02:42:29;;;;;;;5.57;4.85;;;;;;;14.01;79.07;96598.06;5155191;27;20095;-63
2023/09/21 02:44:56;;;;;;;5.97;5.43;;;;;;;14.05;79.73;96589.09;5154992;27;20055;-66
2023/09/21 02:47:24;;;;;;;6.40;5.35;;;;;;;14.05;80.04;96594.34;5155076;27;20099;-68
2023/09/21 02:49:52;;;;;;;5.63;4.88;;;;;;;14.09;79.74;96593.25;5155056;27;20070;-65
2023/09/21 02:52:21;;;;;;;9.63;5.57;;;;;;;14.09;78.83;96593.25;5154973;27;20050;-65
2023/09/21 02:54:48;;;;;;;5.72;5.10;;;;;;;14.07;78.38;96589.00;5154895;27;20456;-65
2023/09/21 02:57:17;;;;;;;6.00;5.00;;;;;;;14.04;77.89;96597.91;5154947;27;20042;-67
2023/09/21 02:59:44;;;;;;;5.63;5.03;;;;;;;14.02;77.80;96595.34;5154690;27;20047;-65
2023/09/21 03:02:12;;;;;;;5.63;4.65;;;;;;;14.04;77.77;96600.53;5154856;27;20053;-63
2023/09/21 03:04:42;;;;;;;6.50;5.10;;;;;;;14.05;77.19;96606.66;5154900;27;20541;-64
2023/09/21 03:07:09;;;;;;;6.25;4.50;;;;;;;14.01;77.32;96603.31;5154765;27;20483;-62
2023/09/21 03:09:38;;;;;;;7.20;4.90;;;;;;;13.99;78.35;96603.41;5154788;27;20069;-67
2023/09/21 03:12:05;;;;;;;7.15;5.85;;;;;;;13.94;78.79;96594.06;5154827;27;20078;-70
2023/09/21 03:14:32;;;;;;;6.82;5.93;;;;;;;13.81;79.09;96581.50;5154837;27;20046;-65
2023/09/21 03:16:59;;;;;;;5.95;5.35;;;;;;;13.85;79.59;96596.19;5154685;27;20049;-67
2023/09/21 03:19:26;;;;;;;7.45;5.32;;;;;;;13.86;79.70;96605.81;5154599;27;20053;-66
2023/09/21 03:21:53;;;;;;;9.18;5.75;;;;;;;13.86;80.28;96607.56;5154657;27;20104;-68
2023/09/21 03:24:21;;;;;;;6.25;5.53;;;;;;;13.89;78.91;96600.41;5154692;27;20043;-62
2023/09/21 03:26:50;;;;;;;8.55;5.28;;;;;;;13.85;78.58;96603.25;5154486;27;20038;-67
2023/09/21 03:29:17;;;;;;;7.28;5.00;;;;;;;13.83;78.08;96611.22;5154558;27;20084;-66
2023/09/21 03:31:44;;;;;;;8.63;5.35;;;;;;;13.77;79.68;96601.00;5154531;27;20092;-65
2023/09/21 03:34:11;;;;;;;7.97;5.45;;;;;;;13.77;79.53;96601.88;5154444;27;20107;-65
2023/09/21 03:36:38;;;;;;;6.68;4.93;;;;;;;13.77;78.62;96598.38;5154454;27;20078;-64
2023/09/21 03:39:09;;;;;;;5.65;4.97;;;;;;;13.69;79.57;96595.28;5154538;27;20043;-65
2023/09/21 03:41:37;;;;;;;7.70;5.13;;;;;;;13.70;79.30;96600.44;5154313;27;20427;-65
2023/09/21 03:44:06;;;;;;;11.20;5.03;;;;;;;13.68;79.64;96601.47;5157690;27;20042;-68
2023/09/21 03:46:34;;;;;;;6.25;4.95;;;;;;;13.69;79.01;96597.91;5158829;27;20046;-68
2023/09/21 03:49:01;;;;;;;7.43;5.60;;;;;;;13.65;79.08;96602.47;5158405;27;20078;-66
2023/09/21 03:51:29;;;;;;;9.60;4.72;;;;;;;13.67;79.91;96600.63;5158358;27;20067;-63
2023/09/21 03:53:57;;;;;;;7.30;5.43;;;;;;;13.67;79.98;96600.63;5158381;27;20043;-67
2023/09/21 03:56:26;;;;;;;5.85;5.25;;;;;;;13.69;80.16;96596.13;5158242;27;20480;-65
2023/09/21 03:58:53;;;;;;;7.20;5.43;;;;;;;13.70;79.92;96603.06;5158274;27;20069;-66
2023/09/21 04:01:21;;;;;;;5.88;5.30;;;;;;;13.67;79.31;96600.63;5157842;27;20414;-66
2023/09/21 04:03:53;;;;;;;8.10;5.47;;;;;;;13.67;79.44;96605.03;5158152;27;20074;-68
2023/09/21 04:06:20;;;;;;;6.05;5.13;;;;;;;13.59;79.55;96593.13;5158048;27;20085;-68
2023/09/21 04:08:47;;;;;;;6.53;5.93;;;;;;;13.57;80.11;96602.00;5158063;27;20051;-66
2023/09/21 04:11:14;;;;;;;14.18;6.97;;;;;;;13.59;80.69;96600.13;5158051;27;20095;-66
2023/09/21 04:13:42;;;;;;;6.32;5.40;;;;;;;13.57;80.51;96597.59;5157907;27;20099;-67
2023/09/21 04:16:09;;;;;;;11.75;5.88;;;;;;;13.57;81.24;96592.31;5158091;27;20057;-65
2023/09/21 04:18:38;;;;;;;8.60;5.78;;;;;;;13.61;81.41;96593.03;5157782;27;20046;-67
2023/09/21 04:21:09;;;;;;;8.10;5.75;;;;;;;13.63;81.81;96594.66;5157671;27;20103;-64
2023/09/21 04:23:36;;;;;;;5.63;4.82;;;;;;;13.70;81.38;96589.09;5157741;27;20046;-64
2023/09/21 04:26:04;;;;;;;6.22;5.45;;;;;;;13.77;80.88;96593.13;5157729;27;20050;-68
2023/09/21 04:28:31;;;;;;;6.10;4.90;;;;;;;13.82;80.05;96598.16;5157606;27;20108;-68
2023/09/21 04:31:01;;;;;;;8.18;5.15;;;;;;;13.83;79.77;96605.09;5157525;27;20091;-67
2023/09/21 04:33:29;;;;;;;7.07;5.10;;;;;;;13.86;79.96;96599.69;5157599;27;20385;-65
2023/09/21 04:35:57;;;;;;;6.53;5.18;;;;;;;13.94;80.16;96609.81;5157719;27;20043;-66
2023/09/21 04:38:24;;;;;;;5.47;4.85;;;;;;;14.05;80.15;96609.28;5157609;27;20135;-67
2023/09/21 04:40:52;;;;;;;6.47;5.38;;;;;;;14.15;79.83;96603.47;5157326;27;20411;-64
2023/09/21 04:43:20;;;;;;;7.32;5.57;;;;;;;14.25;79.53;96605.63;5157329;27;20381;-65
2023/09/21 04:45:49;;;;;;;6.18;5.43;;;;;;;14.33;80.12;96607.84;5157413;27;20103;-65
2023/09/21 04:48:16;;;;;;;6.88;4.55;;;;;;;14.63;80.29;96601.91;5157345;27;20043;-64
2023/09/21 04:50:47;;;;;;;6.75;4.38;;;;;;;15.20;76.41;96616.41;5157409;27;20081;-66
2023/09/21 04:53:16;;;;;;;6.65;4.45;;;;;;;15.90;74.35;96615.09;5157365;27;20089;-64
2023/09/21 04:55:43;;;;;;;5.43;4.43;;;;;;;16.59;71.14;96613.75;5156042;27;20085;-69
2023/09/21 04:58:10;;;;;;;4.40;3.42;;;;;;;17.39;68.49;96619.41;5157065;27;20082;-66
2023/09/21 05:00:37;;;;;;;6.43;3.55;;;;;;;18.10;64.49;96623.66;5156770;27;20090;-64
2023/09/21 05:03:05;;;;;;;8.63;3.45;;;;;;;18.77;62.52;96625.31;5156999;27;20069;-64
2023/09/21 05:05:32;;;;;;;6.93;3.90;;;;;;;18.98;60.49;96630.03;5157051;27;20049;-67
2023/09/21 05:07:59;;;;;;;5.00;3.22;;;;;;;18.80;60.92;96630.38;5156863;27;20072;-61
2023/09/21 05:10:28;;;;;;;9.32;3.50;;;;;;;18.62;61.99;96629.88;5156941;27;20047;-69
2023/09/21 05:12:55;;;;;;;5.03;3.63;;;;;;;18.44;62.18;96634.63;5156926;27;20087;-64
2023/09/21 05:15:22;;;;;;;6.05;3.60;;;;;;;18.45;63.17;96638.97;5156723;27;20045;-64
2023/09/21 05:17:49;;;;;;;8.43;4.65;;;;;;;18.63;63.25;96636.03;5156973;27;20039;-70
2023/09/21 05:20:16;;;;;;;6.68;3.90;;;;;;;19.16;62.73;96637.66;5156598;27;20082;-69
2023/09/21 05:22:43;;;;;;;4.20;3.75;;;;;;;19.88;61.51;96651.09;5156633;27;20046;-64
2023/09/21 05:25:11;;;;;;;5.35;3.28;;;;;;;20.58;59.56;96648.53;5156602;27;20103;-65
2023/09/21 05:27:41;;;;;;;7.10;3.25;;;;;;;21.30;57.41;96648.31;5156427;27;20050;-65
2023/09/21 05:30:10;;;;;;;3.60;3.30;;;;;;;21.96;55.10;96655.44;5156382;27;20408;-67
2023/09/21 05:32:37;;;;;;;3.92;2.78;;;;;;;22.63;53.34;96653.56;5156487;27;20115;-65
2023/09/21 05:35:06;;;;;;;5.50;2.90;;;;;;;23.32;52.03;96654.69;5156359;27;20520;-67
2023/09/21 05:37:34;;;;;;;4.40;3.20;;;;;;;24.11;50.22;96656.66;5156308;27;20134;-68
2023/09/21 05:40:05;;;;;;;5.30;3.28;;;;;;;24.94;48.23;96644.59;5156128;27;20111;-65
2023/09/21 05:42:32;;;;;;;2.65;2.35;;;;;;;25.67;46.18;96642.13;5156223;27;20042;-65
2023/09/21 05:45:01;;;;;;;5.50;3.20;;;;;;;26.15;45.54;96641.06;5156099;27;20123;-64
2023/09/21 05:47:28;;;;;;;4.20;2.53;;;;;;;26.54;44.54;96640.72;5156042;27;20046;-66
2023/09/21 05:49:55;;;;;;;5.18;3.15;;;;;;;26.86;44.74;96636.56;5156046;27;20054;-67
2023/09/21 05:52:24;;;;;;;6.03;2.60;;;;;;;27.24;42.79;96641.63;5155978;27;20083;-66
2023/09/21 05:54:51;;;;;;;3.63;2.83;;;;;;;27.61;42.40;96642.28;5155992;27;20505;-66
2023/09/21 05:57:18;;;;;;;5.60;3.20;;;;;;;28.16;41.22;96647.22;5156062;27;20103;-65
2023/09/21 05:59:46;;;;;;;6.32;2.85;;;;;;;28.74;40.69;96643.66;5155630;27;20043;-66
2023/09/21 06:02:15;;;;;;;4.97;3.20;;;;;;;29.33;39.07;96647.06;5155757;27;20492;-65
2023/09/21 06:04:43;;;;;;;5.88;3.28;;;;;;;29.86;38.09;96641.09;5155852;27;20038;-66
2023/09/21 06:07:10;;;;;;;5.07;2.97;;;;;;;30.32;37.94;96645.66;5155478;27;20043;-67
2023/09/21 06:09:38;;;;;;;4.75;3.20;;;;;;;30.54;37.92;96644.94;5155516;27;20504;-67
2023/09/21 06:12:07;;;;;;;6.60;3.45;;;;;;;30.92;36.49;96634.16;5155733;27;20050;-64
2023/09/21 06:14:36;;;;;;;4.20;3.00;;;;;;;31.35;35.18;96636.19;5155592;27;20045;-68
2023/09/21 06:17:04;;;;;;;6.53;3.35;;;;;;;31.64;34.78;96639.84;5155622;27;20050;-69
2023/09/21 06:19:32;;;;;;;4.10;2.47;;;;;;;31.84;34.34;96635.72;5155548;27;20446;-65
2023/09/21 06:22:00;;;;;;;3.65;3.10;;;;;;;31.97;34.13;96637.75;5155343;27;20058;-67
2023/09/21 06:24:27;;;;;;;8.75;3.30;;;;;;;31.99;34.09;96641.91;5155384;27;20552;-67
2023/09/21 06:26:54;;;;;;;4.75;3.30;;;;;;;31.61;33.51;96644.81;5155418;27;20074;-65
2023/09/21 06:29:22;;;;;;;5.32;3.55;;;;;;;31.52;33.40;96642.22;5155446;27;20046;-67
2023/09/21 06:31:54;;;;;;;4.35;3.20;;;;;;;31.27;34.12;96647.91;5155293;27;20099;-68
2023/09/21 06:34:24;;;;;;;5.95;3.83;;;;;;;30.97;34.54;96647.91;5155324;27;20122;-65
2023/09/21 06:36:56;;;;;;;7.60;3.17;;;;;;;30.97;34.90;96647.91;5155176;27;20054;-65
2023/09/21 06:39:23;;;;;;;8.45;3.50;;;;;;;30.97;35.33;96650.63;5155249;27;20050;-66
2023/09/21 06:41:50;;;;;;;8.65;3.42;;;;;;;31.04;35.08;96645.31;5155009;27;20051;-64
2023/09/21 06:44:18;;;;;;;7.30;3.28;;;;;;;31.09;35.38;96650.16;5155030;27;20057;-65
2023/09/21 06:46:45;;;;;;;5.10;3.20;;;;;;;31.07;35.12;96647.66;5155060;27;20074;-66
2023/09/21 06:49:12;;;;;;;9.38;3.15;;;;;;;30.93;34.74;96640.38;5155002;27;20046;-65
2023/09/21 06:51:40;;;;;;;8.68;4.10;;;;;;;30.99;34.65;96636.94;5154866;27;20051;-63
2023/09/21 06:54:09;;;;;;;5.30;2.80;;;;;;;31.09;34.99;96626.69;5155017;27;20070;-66
2023/09/21 06:56:36;;;;;;;11.98;3.03;;;;;;;30.94;34.40;96632.09;5154911;27;20051;-67
2023/09/21 06:59:05;;;;;;;8.75;3.92;;;;;;;30.97;35.40;96637.13;5154894;27;20103;-67
2023/09/21 07:01:33;;;;;;;10.85;3.55;;;;;;;31.06;35.21;96642.44;5154541;27;20118;-63
2023/09/21 07:04:00;;;;;;;6.43;3.30;;;;;;;31.11;34.42;96645.41;5154856;27;20121;-65
2023/09/21 07:06:28;;;;;;;7.65;3.65;;;;;;;31.06;34.08;96647.84;5154882;27;20043;-64
2023/09/21 07:08:55;;;;;;;4.82;3.03;;;;;;;30.77;34.91;96651.19;5154895;27;20038;-64
2023/09/21 07:11:24;;;;;;;6.82;3.30;;;;;;;30.68;34.29;96649.56;5154768;27;20046;-64
2023/09/21 07:13:52;;;;;;;6.88;2.80;;;;;;;30.63;34.00;96644.69;5154633;27;20471;-63
2023/09/21 07:16:19;;;;;;;4.18;3.30;;;;;;;30.46;34.52;96644.00;5154593;27;20050;-62
2023/09/21 07:18:48;;;;;;;6.15;3.20;;;;;;;30.68;35.54;96637.91;5157485;27;20092;-66
2023/09/21 07:21:15;;;;;;;4.00;3.17;;;;;;;30.77;34.70;96632.28;5158931;27;20065;-63
2023/09/21 07:23:42;;;;;;;7.25;3.90;;;;;;;30.69;34.40;96640.41;5159076;27;20043;-64
2023/09/21 07:26:10;;;;;;;3.72;3.33;;;;;;;30.39;34.82;96640.38;5159131;27;20046;-65
2023/09/21 07:28:47;;;;;;;3.85;3.45;;;;;;;30.14;35.66;96630.59;5158789;27;20042;-63
2023/09/21 07:31:15;;;;;;;6.70;3.25;;;;;;;29.85;35.76;96640.25;5158852;27;20038;-64
2023/09/21 07:33:43;;;;;;;9.52;3.25;;;;;;;29.68;36.16;96642.22;5158783;27;20496;-66
2023/09/21 07:36:14;;;;;;;6.32;3.92;;;;;;;29.44;36.38;96646.69;5158652;27;20377;-64
2023/09/21 07:38:41;;;;;;;6.97;3.83;;;;;;;29.17;37.19;96646.13;5158651;27;20058;-63
2023/09/21 07:41:08;;;;;;;13.50;4.05;;;;;;;28.81;37.64;96647.38;5158779;27;20047;-64
2023/09/21 07:43:36;;;;;;;8.40;4.65;;;;;;;28.45;38.18;96651.31;5158524;27;20051;-65
2023/09/21 07:46:05;;;;;;;20.83;4.45;;;;;;;28.25;39.34;96651.59;5158662;27;20078;-66
2023/09/21 07:48:32;;;;;;;8.40;3.60;;;;;;;28.04;39.67;96648.56;5158581;27;20131;-65
2023/09/21 07:51:06;;;;;;;8.18;4.75;;;;;;;27.95;39.66;96650.41;5158557;27;20068;-65
2023/09/21 07:53:33;;;;;;;12.60;4.68;;;;;;;27.82;39.33;96648.19;5158468;27;20095;-66
2023/09/21 07:56:02;;;;;;;12.85;4.47;;;;;;;27.74;40.00;96647.19;5158424;27;20042;-63
2023/09/21 07:58:29;;;;;;;12.15;3.92;;;;;;;27.61;39.99;96654.84;5158201;27;20038;-63
2023/09/21 08:00:56;;;;;;;12.18;5.10;;;;;;;27.42;40.88;96645.22;5157922;27;20054;-65
2023/09/21 08:03:26;;;;;;;11.85;5.07;;;;;;;27.30;40.57;96639.31;5158222;27;20103;-66
2023/09/21 08:05:53;;;;;;;9.97;4.80;;;;;;;27.48;41.19;96633.84;5158128;27;20130;-65
2023/09/21 08:08:21;;;;;;;18.20;5.50;;;;;;;27.61;40.96;96636.03;5158158;27;20050;-68
2023/09/21 08:10:50;;;;;;;14.30;5.20;;;;;;;27.82;39.97;96634.78;5157968;27;20046;-65
2023/09/21 08:13:17;;;;;;;12.20;4.40;;;;;;;28.07;38.71;96637.47;5158029;27;20047;-64
2023/09/21 08:15:45;;;;;;;5.45;3.70;;;;;;;28.14;37.69;96638.47;5157850;27;20054;-68
2023/09/21 08:18:12;;;;;;;11.48;4.50;;;;;;;28.00;36.85;96642.69;5157883;27;20412;-67
2023/09/21 08:20:41;;;;;;;10.13;4.18;;;;;;;28.05;38.29;96643.00;5157725;27;20047;-63
2023/09/21 08:23:08;;;;;;;13.13;4.10;;;;;;;28.03;37.02;96647.75;5157671;27;20480;-65
2023/09/21 08:25:37;;;;;;;8.77;3.53;;;;;;;28.09;38.10;96648.91;5157863;27;20042;-64
2023/09/21 08:28:05;;;;;;;8.80;3.70;;;;;;;28.14;37.69;96651.94;5157834;27;20047;-65
2023/09/21 08:30:32;;;;;;;6.65;3.60;;;;;;;28.13;36.83;96645.72;5157454;27;20556;-64
2023/09/21 08:33:00;;;;;;;8.98;3.92;;;;;;;28.41;38.00;96649.13;5157570;27;20078;-62
2023/09/21 08:35:29;;;;;;;7.25;3.45;;;;;;;28.74;37.12;96639.13;5157584;27;20047;-65
2023/09/21 08:37:59;;;;;;;6.00;3.63;;;;;;;29.15;36.98;96637.38;5157507;27;20096;-68
2023/09/21 08:40:27;;;;;;;8.52;3.50;;;;;;;29.37;35.98;96632.22;5157495;27;20051;-66
2023/09/21 08:42:55;;;;;;;5.88;3.30;;;;;;;29.24;35.08;96633.66;5157256;27;20054;-65
2023/09/21 08:45:24;;;;;;;5.93;3.55;;;;;;;29.11;35.81;96630.66;5157372;27;20540;-66
2023/09/21 08:47:51;;;;;;;10.30;3.58;;;;;;;28.99;36.20;96636.41;5157367;27;20137;-63
2023/09/21 08:50:19;;;;;;;4.00;2.95;;;;;;;28.92;36.63;96626.50;5157296;27;20096;-63
2023/09/21 08:52:48;;;;;;;6.05;3.35;;;;;;;28.85;36.20;96624.50;5155944;27;20404;-63
2023/09/21 08:55:16;;;;;;;9.30;3.50;;;;;;;28.60;36.63;96627.22;5157066;27;20514;-65
2023/09/21 08:57:44;;;;;;;6.13;3.33;;;;;;;28.32;37.28;96627.59;5157119;27;20072;-63
2023/09/21 09:00:13;;;;;;;6.78;3.63;;;;;;;28.28;37.25;96622.69;5156886;27;20046;-68
2023/09/21 09:02:40;;;;;;;11.15;3.65;;;;;;;28.31;37.59;96619.69;5156909;27;20099;-62
2023/09/21 09:05:11;;;;;;;4.55;3.42;;;;;;;28.08;37.96;96623.06;5156989;27;20070;-64
2023/09/21 09:07:40;;;;;;;5.38;3.20;;;;;;;28.18;38.27;96623.72;5157036;27;20449;-66
2023/09/21 09:10:09;;;;;;;6.53;2.92;;;;;;;28.38;37.60;96618.84;5156997;27;20392;-64
2023/09/21 09:12:39;;;;;;;10.57;3.63;;;;;;;28.71;37.14;96622.53;5156909;27;20047;-64
2023/09/21 09:15:08;;;;;;;8.18;3.35;;;;;;;28.95;37.20;96618.94;5156782;27;20066;-68
2023/09/21 09:17:36;;;;;;;4.60;3.38;;;;;;;29.04;37.39;96621.63;5156816;27;20043;-65
2023/09/21 09:20:08;;;;;;;8.32;3.50;;;;;;;29.20;35.66;96631.47;5156761;27;20050;-68
2023/09/21 09:22:36;;;;;;;7.40;3.40;;;;;;;29.13;35.81;96623.25;5156550;27;20050;-65
2023/09/21 09:25:05;;;;;;;7.95;3.55;;;;;;;29.02;36.55;96632.56;5156626;27;20050;-64
2023/09/21 09:27:33;;;;;;;6.05;3.20;;;;;;;28.96;36.09;96631.38;5156578;27;20446;-65
2023/09/21 09:30:04;;;;;;;4.57;2.92;;;;;;;28.83;36.13;96628.38;5156487;27;20047;-65
2023/09/21 09:32:37;;;;;;;4.65;3.30;;;;;;;28.82;36.06;96619.47;5156532;27;20046;-65
2023/09/21 09:35:06;;;;;;;8.93;4.05;;;;;;;28.81;35.81;96619.63;5156398;27;20038;-62
2023/09/21 09:37:34;;;;;;;8.48;3.30;;;;;;;28.79;36.01;96622.50;5156362;27;20418;-67
2023/09/21 09:40:18;;;;;;;7.82;3.40;;;;;;;28.61;36.22;96623.53;5156038;27;20054;-66
2023/09/21 09:42:46;;;;;;;8.93;3.10;;;;;;;28.37;37.69;96622.56;5156286;27;20400;-66
2023/09/21 09:45:19;;;;;;;5.70;3.22;;;;;;;28.15;36.48;96623.19;5156175;27;20045;-65
2023/09/21 09:47:51;;;;;;;7.13;3.03;;;;;;;28.15;37.02;96621.38;5156173;27;20042;-64
2023/09/21 09:50:23;;;;;;;9.95;3.30;;;;;;;28.25;38.03;96611.28;5156032;27;20066;-65
2023/09/21 09:53:00;;;;;;;12.52;3.63;;;;;;;28.20;37.15;96618.19;5156028;27;20102;-65
2023/09/21 09:55:31;;;;;;;6.28;3.70;;;;;;;27.94;38.67;96614.66;5155990;27;20107;-65
2023/09/21 09:57:59;;;;;;;6.30;3.08;;;;;;;28.20;38.28;96602.88;5156039;27;20046;-65
2023/09/21 10:00:28;;;;;;;10.80;3.40;;;;;;;28.40;38.31;96601.69;5155769;27;20129;-64
2023/09/21 10:02:59;;;;;;;6.70;3.28;;;;;;;28.64;37.54;96611.59;5155738;27;20099;-68
2023/09/21 10:05:27;;;;;;;9.77;3.88;;;;;;;28.45;36.78;96602.91;5155928;27;20446;-65
2023/09/21 10:07:59;;;;;;;5.70;3.20;;;;;;;28.35;37.23;96602.25;5155731;27;20082;-64
2023/09/21 10:10:30;;;;;;;10.85;3.70;;;;;;;28.49;37.71;96598.00;5155718;27;20078;-65
2023/09/21 10:12:58;;;;;;;8.48;3.80;;;;;;;28.58;36.27;96591.59;5155646;27;20389;-65
2023/09/21 10:15:27;;;;;;;3.53;2.85;;;;;;;28.54;39.27;96598.34;5155576;27;20047;-66
2023/09/21 10:17:56;;;;;;;7.20;4.03;;;;;;;28.66;36.83;96588.06;5155589;27;20111;-63
2023/09/21 10:20:27;;;;;;;8.87;3.60;;;;;;;28.70;37.35;96581.31;5155468;27;20467;-67
2023/09/21 10:22:55;;;;;;;9.93;3.90;;;;;;;28.76;36.70;96577.09;5155391;27;20302;-63
2023/09/21 10:25:38;;;;;;;4.97;3.47;;;;;;;28.88;36.93;96573.03;5155336;27;20043;-64
2023/09/21 10:28:35;;;;;;;7.60;3.60;;;;;;;29.05;35.63;96574.81;5155388;27;20047;-63
2023/09/21 10:31:22;;;;;;;5.75;3.40;;;;;;;28.98;36.37;96569.28;5155379;27;20130;-62
2023/09/21 10:34:11;;;;;;;6.80;3.33;;;;;;;28.93;36.66;96561.75;5155463;27;20152;-63
2023/09/21 10:36:45;;;;;;;5.97;3.65;;;;;;;29.01;36.28;96553.66;5155217;27;20043;-61
2023/09/21 10:39:28;;;;;;;7.15;3.25;;;;;;;28.99;35.63;96565.59;5155159;27;20053;-62
2023/09/21 10:42:18;;;;;;;9.32;3.88;;;;;;;28.74;37.19;96558.44;5155152;27;20125;-64
2023/09/21 10:45:07;;;;;;;4.80;3.28;;;;;;;28.68;37.96;96545.66;5154986;27;20047;-64
2023/09/21 10:47:49;;;;;;;7.78;3.45;;;;;;;28.68;37.76;96548.34;5155143;27;20126;-63
2023/09/21 10:50:19;;;;;;;13.40;3.72;;;;;;;28.82;37.33;96544.09;5155013;27;20416;-63
2023/09/21 10:52:47;;;;;;;10.50;3.67;;;;;;;28.86;36.29;96537.34;5154149;27;20043;-67
2023/09/21 10:55:16;;;;;;;8.38;3.53;;;;;;;28.96;37.50;96542.56;5155139;27;20103;-62
2023/09/21 10:57:44;;;;;;;8.63;3.78;;;;;;;28.93;36.85;96542.06;5154965;27;20043;-64
2023/09/21 11:00:17;;;;;;;8.38;3.65;;;;;;;28.62;36.93;96544.50;5154670;27;20074;-63
2023/09/21 11:02:49;;;;;;;6.25;3.47;;;;;;;28.42;36.96;96543.22;5154905;27;20457;-65
2023/09/21 11:05:21;;;;;;;6.80;3.40;;;;;;;28.51;37.88;96534.94;5154790;27;20046;-67
2023/09/21 11:07:50;;;;;;;10.07;4.00;;;;;;;28.47;38.62;96530.94;5154817;27;20053;-66
2023/09/21 11:10:18;;;;;;;6.80;3.88;;;;;;;28.44;37.72;96523.22;5154828;27;20046;-64
2023/09/21 11:12:45;;;;;;;10.45;3.40;;;;;;;28.49;38.30;96528.91;5154852;27;20731;-65
2023/09/21 11:15:14;;;;;;;5.07;3.03;;;;;;;28.58;37.29;96527.03;5154664;27;20043;-64
2023/09/21 11:17:43;;;;;;;5.15;3.53;;;;;;;28.51;37.79;96526.88;5154797;27;20047;-61
2023/09/21 11:20:15;;;;;;;8.80;3.60;;;;;;;28.47;38.27;96520.19;5154651;27;20046;-64
2023/09/21 11:22:43;;;;;;;4.60;3.50;;;;;;;28.63;36.43;96519.28;5154668;27;20468;-64
2023/09/21 11:25:12;;;;;;;4.63;3.08;;;;;;;28.54;35.93;96517.66;5154698;27;20042;-67
2023/09/21 11:27:41;;;;;;;6.13;2.95;;;;;;;28.61;37.13;96513.25;5154510;27;20430;-69
2023/09/21 11:30:10;;;;;;;7.33;3.30;;;;;;;28.70;36.67;96515.91;5154637;27;20049;-63
2023/09/21 11:32:43;;;;;;;8.48;3.85;;;;;;;28.80;37.31;96508.44;5154643;27;20278;-66
2023/09/21 11:35:12;;;;;;;7.32;3.50;;;;;;;28.80;34.97;96502.25;5154566;27;20042;-63
2023/09/21 11:37:39;;;;;;;7.35;3.20;;;;;;;28.72;35.52;96503.94;5154497;27;20046;-65
2023/09/21 11:40:11;;;;;;;7.00;3.17;;;;;;;28.91;36.53;96496.47;5154535;27;20047;-69